sensor_id;sensor_type;location;lat;lon;timestamp;P1;durP1;ratioP1;P2;durP2;ratioP2
23496;SDS011;11925;48.122;11.560;2023-05-27T00:00:56;13.93;;;9.38;;
23496;SDS011;11925;48.122;11.560;2023-05-27T00:03:25;13.32;;;9.60;;
23496;SDS011;11925;48.122;11.560;2023-05-27T00:05:53;15.02;;;9.43;;
23496;SDS011;11925;48.122;11.560;2023-05-27T00:08:22;16.55;;;10.35;;
23496;SDS011;11925;48.122;11.560;2023-05-27T00:10:50;14.18;;;10.63;;
23496;SDS011;11925;48.122;11.560;2023-05-27T00:13:18;14.98;;;9.73;;
23496;SDS011;11925;48.122;11.560;2023-05-27T00:15:47;14.55;;;9.80;;
23496;SDS011;11925;48.122;11.560;2023-05-27T00:18:17;17.67;;;9.63;;
23496;SDS011;11925;48.122;11.560;2023-05-27T00:20:45;14.68;;;9.23;;
23496;SDS011;11925;48.122;11.560;2023-05-27T00:23:14;15.60;;;9.90;;
23496;SDS011;11925;48.122;11.560;2023-05-27T00:25:43;19.80;;;9.93;;
23496;SDS011;11925;48.122;11.560;2023-05-27T00:28:11;13.88;;;9.38;;
23496;SDS011;11925;48.122;11.560;2023-05-27T00:30:39;13.63;;;10.10;;
23496;SDS011;11925;48.122;11.560;2023-05-27T00:33:08;15.75;;;9.32;;
23496;SDS011;11925;48.122;11.560;2023-05-27T00:35:37;15.70;;;9.57;;
23496;SDS011;11925;48.122;11.560;2023-05-27T00:38:06;14.40;;;9.45;;
23496;SDS011;11925;48.122;11.560;2023-05-27T00:40:34;11.77;;;9.25;;
23496;SDS011;11925;48.122;11.560;2023-05-27T00:43:04;14.40;;;9.90;;
23496;SDS011;11925;48.122;11.560;2023-05-27T00:45:32;14.60;;;9.95;;
23496;SDS011;11925;48.122;11.560;2023-05-27T00:48:02;14.40;;;9.70;;
23496;SDS011;11925;48.122;11.560;2023-05-27T00:50:31;12.07;;;9.15;;
23496;SDS011;11925;48.122;11.560;2023-05-27T00:53:00;13.95;;;9.65;;
23496;SDS011;11925;48.122;11.560;2023-05-27T00:55:29;12.43;;;9.35;;
23496;SDS011;11925;48.122;11.560;2023-05-27T00:57:58;14.10;;;9.23;;
23496;SDS011;11925;48.122;11.560;2023-05-27T01:00:27;14.88;;;9.52;;
23496;SDS011;11925;48.122;11.560;2023-05-27T01:02:55;15.07;;;10.13;;
23496;SDS011;11925;48.122;11.560;2023-05-27T01:05:24;16.23;;;9.80;;
23496;SDS011;11925;48.122;11.560;2023-05-27T01:08:02;14.73;;;10.48;;
23496;SDS011;11925;48.122;11.560;2023-05-27T01:10:40;14.38;;;9.35;;
23496;SDS011;11925;48.122;11.560;2023-05-27T01:13:16;14.70;;;11.10;;
23496;SDS011;11925;48.122;11.560;2023-05-27T01:15:48;15.23;;;9.63;;
23496;SDS011;11925;48.122;11.560;2023-05-27T01:18:21;15.57;;;9.93;;
23496;SDS011;11925;48.122;11.560;2023-05-27T01:23:23;14.63;;;9.10;;
23496;SDS011;11925;48.122;11.560;2023-05-27T01:25:52;13.98;;;10.40;;
23496;SDS011;11925;48.122;11.560;2023-05-27T01:28:20;15.55;;;10.27;;
23496;SDS011;11925;48.122;11.560;2023-05-27T01:30:49;16.63;;;9.68;;
23496;SDS011;11925;48.122;11.560;2023-05-27T01:33:23;15.75;;;9.48;;
23496;SDS011;11925;48.122;11.560;2023-05-27T01:35:58;13.40;;;9.60;;
23496;SDS011;11925;48.122;11.560;2023-05-27T01:38:32;12.95;;;10.25;;
23496;SDS011;11925;48.122;11.560;2023-05-27T01:41:02;15.48;;;10.68;;
23496;SDS011;11925;48.122;11.560;2023-05-27T01:43:30;13.70;;;9.85;;
23496;SDS011;11925;48.122;11.560;2023-05-27T01:45:59;14.13;;;10.02;;
23496;SDS011;11925;48.122;11.560;2023-05-27T01:48:28;13.63;;;9.63;;
23496;SDS011;11925;48.122;11.560;2023-05-27T01:50:56;16.15;;;9.82;;
23496;SDS011;11925;48.122;11.560;2023-05-27T01:53:26;13.70;;;9.75;;
23496;SDS011;11925;48.122;11.560;2023-05-27T01:55:55;18.20;;;10.57;;
23496;SDS011;11925;48.122;11.560;2023-05-27T01:58:24;14.13;;;9.65;;
23496;SDS011;11925;48.122;11.560;2023-05-27T02:00:52;13.95;;;10.38;;
23496;SDS011;11925;48.122;11.560;2023-05-27T02:03:20;15.85;;;10.40;;
23496;SDS011;11925;48.122;11.560;2023-05-27T02:05:49;13.10;;;9.85;;
23496;SDS011;11925;48.122;11.560;2023-05-27T02:08:18;13.63;;;9.95;;
23496;SDS011;11925;48.122;11.560;2023-05-27T02:10:46;15.00;;;9.75;;
23496;SDS011;11925;48.122;11.560;2023-05-27T02:13:16;15.23;;;10.35;;
23496;SDS011;11925;48.122;11.560;2023-05-27T02:15:44;12.80;;;10.02;;
23496;SDS011;11925;48.122;11.560;2023-05-27T02:18:13;15.77;;;10.75;;
23496;SDS011;11925;48.122;11.560;2023-05-27T02:20:41;14.68;;;10.15;;
23496;SDS011;11925;48.122;11.560;2023-05-27T02:23:10;13.35;;;10.27;;
23496;SDS011;11925;48.122;11.560;2023-05-27T02:25:38;12.32;;;9.77;;
23496;SDS011;11925;48.122;11.560;2023-05-27T02:28:06;13.00;;;9.90;;
23496;SDS011;11925;48.122;11.560;2023-05-27T02:30:37;13.95;;;10.30;;
23496;SDS011;11925;48.122;11.560;2023-05-27T02:33:05;12.20;;;9.17;;
23496;SDS011;11925;48.122;11.560;2023-05-27T02:35:34;14.40;;;10.02;;
23496;SDS011;11925;48.122;11.560;2023-05-27T02:38:02;13.75;;;10.50;;
23496;SDS011;11925;48.122;11.560;2023-05-27T02:40:31;13.55;;;9.95;;
23496;SDS011;11925;48.122;11.560;2023-05-27T02:42:59;13.68;;;9.60;;
23496;SDS011;11925;48.122;11.560;2023-05-27T02:45:27;15.55;;;10.50;;
23496;SDS011;11925;48.122;11.560;2023-05-27T02:47:58;14.45;;;10.73;;
23496;SDS011;11925;48.122;11.560;2023-05-27T02:50:28;15.65;;;10.68;;
23496;SDS011;11925;48.122;11.560;2023-05-27T02:52:57;14.65;;;9.60;;
23496;SDS011;11925;48.122;11.560;2023-05-27T02:55:26;13.95;;;10.23;;
23496;SDS011;11925;48.122;11.560;2023-05-27T02:57:54;16.05;;;9.88;;
23496;SDS011;11925;48.122;11.560;2023-05-27T03:00:23;16.63;;;9.43;;
23496;SDS011;11925;48.122;11.560;2023-05-27T03:02:52;14.25;;;10.10;;
23496;SDS011;11925;48.122;11.560;2023-05-27T03:05:23;15.25;;;10.07;;
23496;SDS011;11925;48.122;11.560;2023-05-27T03:07:52;14.13;;;9.73;;
23496;SDS011;11925;48.122;11.560;2023-05-27T03:10:22;17.05;;;10.38;;
23496;SDS011;11925;48.122;11.560;2023-05-27T03:12:53;14.43;;;10.18;;
23496;SDS011;11925;48.122;11.560;2023-05-27T03:15:23;15.95;;;10.48;;
23496;SDS011;11925;48.122;11.560;2023-05-27T03:17:52;15.10;;;10.00;;
23496;SDS011;11925;48.122;11.560;2023-05-27T03:20:20;14.70;;;9.98;;
23496;SDS011;11925;48.122;11.560;2023-05-27T03:22:50;13.90;;;9.80;;
23496;SDS011;11925;48.122;11.560;2023-05-27T03:25:19;14.60;;;9.57;;
23496;SDS011;11925;48.122;11.560;2023-05-27T03:27:47;15.38;;;10.15;;
23496;SDS011;11925;48.122;11.560;2023-05-27T03:30:16;12.07;;;9.90;;
23496;SDS011;11925;48.122;11.560;2023-05-27T03:32:48;15.15;;;9.95;;
23496;SDS011;11925;48.122;11.560;2023-05-27T03:35:22;15.40;;;9.75;;
23496;SDS011;11925;48.122;11.560;2023-05-27T03:37:53;12.23;;;9.98;;
23496;SDS011;11925;48.122;11.560;2023-05-27T03:40:21;14.77;;;9.68;;
23496;SDS011;11925;48.122;11.560;2023-05-27T03:42:50;12.85;;;9.75;;
23496;SDS011;11925;48.122;11.560;2023-05-27T03:45:21;15.32;;;9.90;;
23496;SDS011;11925;48.122;11.560;2023-05-27T03:47:50;15.63;;;10.18;;
23496;SDS011;11925;48.122;11.560;2023-05-27T03:50:19;15.35;;;10.43;;
23496;SDS011;11925;48.122;11.560;2023-05-27T03:52:48;15.02;;;10.57;;
23496;SDS011;11925;48.122;11.560;2023-05-27T03:55:17;14.27;;;9.88;;
23496;SDS011;11925;48.122;11.560;2023-05-27T03:57:47;13.48;;;9.95;;
23496;SDS011;11925;48.122;11.560;2023-05-27T04:00:16;13.52;;;10.60;;
23496;SDS011;11925;48.122;11.560;2023-05-27T04:02:48;15.35;;;10.25;;
23496;SDS011;11925;48.122;11.560;2023-05-27T04:05:17;14.00;;;9.73;;
23496;SDS011;11925;48.122;11.560;2023-05-27T04:07:45;14.80;;;9.98;;
23496;SDS011;11925;48.122;11.560;2023-05-27T04:10:13;15.43;;;10.20;;
23496;SDS011;11925;48.122;11.560;2023-05-27T04:12:43;16.88;;;10.48;;
23496;SDS011;11925;48.122;11.560;2023-05-27T04:15:12;14.10;;;9.52;;
23496;SDS011;11925;48.122;11.560;2023-05-27T04:17:40;14.27;;;9.23;;
23496;SDS011;11925;48.122;11.560;2023-05-27T04:20:10;13.98;;;9.55;;
23496;SDS011;11925;48.122;11.560;2023-05-27T04:22:48;14.45;;;9.52;;
23496;SDS011;11925;48.122;11.560;2023-05-27T04:25:17;13.52;;;9.40;;
23496;SDS011;11925;48.122;11.560;2023-05-27T04:28:07;16.63;;;10.45;;
23496;SDS011;11925;48.122;11.560;2023-05-27T04:30:40;16.05;;;10.18;;
23496;SDS011;11925;48.122;11.560;2023-05-27T04:33:18;12.38;;;9.43;;
23496;SDS011;11925;48.122;11.560;2023-05-27T04:35:48;14.77;;;10.07;;
23496;SDS011;11925;48.122;11.560;2023-05-27T04:38:21;13.07;;;9.40;;
23496;SDS011;11925;48.122;11.560;2023-05-27T04:41:00;14.77;;;9.73;;
23496;SDS011;11925;48.122;11.560;2023-05-27T04:44:04;13.40;;;9.30;;
23496;SDS011;11925;48.122;11.560;2023-05-27T04:46:37;15.10;;;9.82;;
23496;SDS011;11925;48.122;11.560;2023-05-27T04:49:07;13.48;;;9.40;;
23496;SDS011;11925;48.122;11.560;2023-05-27T04:51:37;13.35;;;8.88;;
23496;SDS011;11925;48.122;11.560;2023-05-27T04:54:06;12.15;;;9.55;;
23496;SDS011;11925;48.122;11.560;2023-05-27T04:56:35;14.45;;;9.35;;
23496;SDS011;11925;48.122;11.560;2023-05-27T04:59:07;15.70;;;9.45;;
23496;SDS011;11925;48.122;11.560;2023-05-27T05:01:42;17.10;;;9.77;;
23496;SDS011;11925;48.122;11.560;2023-05-27T05:04:46;14.40;;;8.80;;
23496;SDS011;11925;48.122;11.560;2023-05-27T05:07:16;12.60;;;8.82;;
23496;SDS011;11925;48.122;11.560;2023-05-27T05:09:48;13.95;;;9.32;;
23496;SDS011;11925;48.122;11.560;2023-05-27T05:12:24;12.25;;;9.27;;
23496;SDS011;11925;48.122;11.560;2023-05-27T05:14:55;12.60;;;9.13;;
23496;SDS011;11925;48.122;11.560;2023-05-27T05:17:24;16.75;;;8.93;;
23496;SDS011;11925;48.122;11.560;2023-05-27T05:19:53;11.82;;;8.68;;
23496;SDS011;11925;48.122;11.560;2023-05-27T05:22:23;12.70;;;9.00;;
23496;SDS011;11925;48.122;11.560;2023-05-27T05:24:53;13.48;;;9.05;;
23496;SDS011;11925;48.122;11.560;2023-05-27T05:27:33;12.52;;;9.10;;
23496;SDS011;11925;48.122;11.560;2023-05-27T05:30:05;13.30;;;8.73;;
23496;SDS011;11925;48.122;11.560;2023-05-27T05:35:03;12.73;;;8.50;;
23496;SDS011;11925;48.122;11.560;2023-05-27T05:37:33;14.40;;;9.43;;
23496;SDS011;11925;48.122;11.560;2023-05-27T05:40:02;14.20;;;9.27;;
23496;SDS011;11925;48.122;11.560;2023-05-27T05:42:34;10.98;;;7.97;;
23496;SDS011;11925;48.122;11.560;2023-05-27T05:45:05;12.57;;;8.05;;
23496;SDS011;11925;48.122;11.560;2023-05-27T05:47:35;14.27;;;8.98;;
23496;SDS011;11925;48.122;11.560;2023-05-27T05:50:09;15.63;;;8.23;;
23496;SDS011;11925;48.122;11.560;2023-05-27T05:52:38;14.85;;;8.85;;
23496;SDS011;11925;48.122;11.560;2023-05-27T05:55:06;12.88;;;8.50;;
23496;SDS011;11925;48.122;11.560;2023-05-27T05:57:35;13.18;;;8.25;;
23496;SDS011;11925;48.122;11.560;2023-05-27T06:00:06;14.63;;;9.30;;
23496;SDS011;11925;48.122;11.560;2023-05-27T06:02:43;13.43;;;8.20;;
23496;SDS011;11925;48.122;11.560;2023-05-27T06:05:30;10.93;;;8.05;;
23496;SDS011;11925;48.122;11.560;2023-05-27T06:07:58;11.05;;;7.93;;
23496;SDS011;11925;48.122;11.560;2023-05-27T06:10:27;11.95;;;8.35;;
23496;SDS011;11925;48.122;11.560;2023-05-27T06:12:55;13.80;;;8.60;;
23496;SDS011;11925;48.122;11.560;2023-05-27T06:15:25;12.68;;;7.70;;
23496;SDS011;11925;48.122;11.560;2023-05-27T06:17:54;12.20;;;7.93;;
23496;SDS011;11925;48.122;11.560;2023-05-27T06:20:23;12.30;;;8.55;;
23496;SDS011;11925;48.122;11.560;2023-05-27T06:22:52;12.88;;;7.57;;
23496;SDS011;11925;48.122;11.560;2023-05-27T06:25:54;11.57;;;7.70;;
23496;SDS011;11925;48.122;11.560;2023-05-27T06:28:24;14.52;;;7.47;;
23496;SDS011;11925;48.122;11.560;2023-05-27T06:30:54;12.45;;;8.13;;
23496;SDS011;11925;48.122;11.560;2023-05-27T06:33:22;12.82;;;7.45;;
23496;SDS011;11925;48.122;11.560;2023-05-27T06:35:51;10.80;;;7.40;;
23496;SDS011;11925;48.122;11.560;2023-05-27T06:38:19;10.18;;;7.47;;
23496;SDS011;11925;48.122;11.560;2023-05-27T06:40:49;13.50;;;7.60;;
23496;SDS011;11925;48.122;11.560;2023-05-27T06:43:18;11.38;;;7.30;;
23496;SDS011;11925;48.122;11.560;2023-05-27T06:45:59;10.82;;;7.60;;
23496;SDS011;11925;48.122;11.560;2023-05-27T06:48:44;13.15;;;7.97;;
23496;SDS011;11925;48.122;11.560;2023-05-27T06:51:14;13.85;;;7.65;;
23496;SDS011;11925;48.122;11.560;2023-05-27T06:53:43;11.82;;;7.28;;
23496;SDS011;11925;48.122;11.560;2023-05-27T06:56:16;10.85;;;7.40;;
23496;SDS011;11925;48.122;11.560;2023-05-27T06:59:01;14.88;;;7.80;;
23496;SDS011;11925;48.122;11.560;2023-05-27T07:01:31;11.20;;;6.85;;
23496;SDS011;11925;48.122;11.560;2023-05-27T07:04:02;12.07;;;7.15;;
23496;SDS011;11925;48.122;11.560;2023-05-27T07:06:42;10.35;;;6.93;;
23496;SDS011;11925;48.122;11.560;2023-05-27T07:09:11;9.27;;;6.72;;
23496;SDS011;11925;48.122;11.560;2023-05-27T07:11:40;12.65;;;7.00;;
23496;SDS011;11925;48.122;11.560;2023-05-27T07:14:14;12.05;;;7.63;;
23496;SDS011;11925;48.122;11.560;2023-05-27T07:16:44;12.23;;;6.97;;
23496;SDS011;11925;48.122;11.560;2023-05-27T07:19:13;11.70;;;6.80;;
23496;SDS011;11925;48.122;11.560;2023-05-27T07:21:49;14.23;;;7.05;;
23496;SDS011;11925;48.122;11.560;2023-05-27T07:24:20;12.65;;;6.47;;
23496;SDS011;11925;48.122;11.560;2023-05-27T07:26:50;13.52;;;7.00;;
23496;SDS011;11925;48.122;11.560;2023-05-27T07:29:19;11.70;;;6.53;;
23496;SDS011;11925;48.122;11.560;2023-05-27T07:31:52;12.13;;;6.63;;
23496;SDS011;11925;48.122;11.560;2023-05-27T07:34:27;13.05;;;6.28;;
23496;SDS011;11925;48.122;11.560;2023-05-27T07:36:55;12.32;;;7.15;;
23496;SDS011;11925;48.122;11.560;2023-05-27T07:39:23;9.38;;;6.38;;
23496;SDS011;11925;48.122;11.560;2023-05-27T07:41:52;13.60;;;6.50;;
23496;SDS011;11925;48.122;11.560;2023-05-27T07:44:21;12.05;;;5.97;;
23496;SDS011;11925;48.122;11.560;2023-05-27T07:46:51;12.85;;;6.20;;
23496;SDS011;11925;48.122;11.560;2023-05-27T07:49:20;12.82;;;6.70;;
23496;SDS011;11925;48.122;11.560;2023-05-27T07:52:06;11.93;;;6.78;;
23496;SDS011;11925;48.122;11.560;2023-05-27T07:54:35;11.48;;;6.53;;
23496;SDS011;11925;48.122;11.560;2023-05-27T07:57:21;8.88;;;6.35;;
23496;SDS011;11925;48.122;11.560;2023-05-27T07:59:50;11.48;;;6.28;;
23496;SDS011;11925;48.122;11.560;2023-05-27T08:02:21;10.52;;;6.20;;
23496;SDS011;11925;48.122;11.560;2023-05-27T08:04:50;10.35;;;5.70;;
23496;SDS011;11925;48.122;11.560;2023-05-27T08:07:35;12.35;;;6.40;;
23496;SDS011;11925;48.122;11.560;2023-05-27T08:10:26;10.48;;;6.18;;
23496;SDS011;11925;48.122;11.560;2023-05-27T08:13:20;10.45;;;5.43;;
23496;SDS011;11925;48.122;11.560;2023-05-27T08:16:03;10.32;;;5.78;;
23496;SDS011;11925;48.122;11.560;2023-05-27T08:18:43;10.63;;;5.45;;
23496;SDS011;11925;48.122;11.560;2023-05-27T08:21:17;11.57;;;6.43;;
23496;SDS011;11925;48.122;11.560;2023-05-27T08:24:04;14.95;;;6.10;;
23496;SDS011;11925;48.122;11.560;2023-05-27T08:27:01;11.15;;;5.63;;
23496;SDS011;11925;48.122;11.560;2023-05-27T08:29:38;11.80;;;5.80;;
23496;SDS011;11925;48.122;11.560;2023-05-27T08:32:26;12.70;;;6.40;;
23496;SDS011;11925;48.122;11.560;2023-05-27T08:34:56;14.07;;;6.18;;
23496;SDS011;11925;48.122;11.560;2023-05-27T08:37:26;11.68;;;6.38;;
23496;SDS011;11925;48.122;11.560;2023-05-27T08:39:54;12.77;;;6.30;;
23496;SDS011;11925;48.122;11.560;2023-05-27T08:42:33;10.25;;;5.90;;
23496;SDS011;11925;48.122;11.560;2023-05-27T08:45:02;9.43;;;5.68;;
23496;SDS011;11925;48.122;11.560;2023-05-27T08:47:30;14.35;;;6.10;;
23496;SDS011;11925;48.122;11.560;2023-05-27T08:50:01;11.88;;;6.60;;
23496;SDS011;11925;48.122;11.560;2023-05-27T08:52:30;12.38;;;6.22;;
23496;SDS011;11925;48.122;11.560;2023-05-27T08:55:00;11.55;;;6.47;;
23496;SDS011;11925;48.122;11.560;2023-05-27T08:57:30;12.25;;;6.70;;
23496;SDS011;11925;48.122;11.560;2023-05-27T09:00:02;13.23;;;6.18;;
23496;SDS011;11925;48.122;11.560;2023-05-27T09:02:37;10.48;;;6.15;;
23496;SDS011;11925;48.122;11.560;2023-05-27T09:05:09;11.52;;;6.32;;
23496;SDS011;11925;48.122;11.560;2023-05-27T09:07:38;8.48;;;5.80;;
23496;SDS011;11925;48.122;11.560;2023-05-27T09:10:07;12.35;;;7.50;;
23496;SDS011;11925;48.122;11.560;2023-05-27T09:12:36;11.77;;;6.68;;
23496;SDS011;11925;48.122;11.560;2023-05-27T09:15:05;11.88;;;7.47;;
23496;SDS011;11925;48.122;11.560;2023-05-27T09:17:34;11.60;;;7.13;;
23496;SDS011;11925;48.122;11.560;2023-05-27T09:20:10;11.32;;;6.70;;
23496;SDS011;11925;48.122;11.560;2023-05-27T09:25:08;15.32;;;7.00;;
23496;SDS011;11925;48.122;11.560;2023-05-27T09:27:42;13.93;;;7.57;;
23496;SDS011;11925;48.122;11.560;2023-05-27T09:30:11;11.98;;;7.20;;
23496;SDS011;11925;48.122;11.560;2023-05-27T09:32:40;13.65;;;6.45;;
23496;SDS011;11925;48.122;11.560;2023-05-27T09:35:11;13.05;;;7.50;;
23496;SDS011;11925;48.122;11.560;2023-05-27T09:37:40;12.90;;;7.13;;
23496;SDS011;11925;48.122;11.560;2023-05-27T09:40:12;14.85;;;7.28;;
23496;SDS011;11925;48.122;11.560;2023-05-27T09:42:42;13.75;;;7.05;;
23496;SDS011;11925;48.122;11.560;2023-05-27T09:45:11;10.35;;;6.97;;
23496;SDS011;11925;48.122;11.560;2023-05-27T09:47:42;11.63;;;6.43;;
23496;SDS011;11925;48.122;11.560;2023-05-27T09:50:19;12.23;;;6.63;;
23496;SDS011;11925;48.122;11.560;2023-05-27T09:52:48;11.88;;;6.95;;
23496;SDS011;11925;48.122;11.560;2023-05-27T09:55:19;12.88;;;7.00;;
23496;SDS011;11925;48.122;11.560;2023-05-27T09:57:48;13.00;;;7.05;;
23496;SDS011;11925;48.122;11.560;2023-05-27T10:00:17;12.95;;;7.50;;
23496;SDS011;11925;48.122;11.560;2023-05-27T10:02:47;15.55;;;7.25;;
23496;SDS011;11925;48.122;11.560;2023-05-27T10:05:16;10.60;;;7.07;;
23496;SDS011;11925;48.122;11.560;2023-05-27T10:07:47;12.70;;;7.25;;
23496;SDS011;11925;48.122;11.560;2023-05-27T10:10:18;12.90;;;7.80;;
23496;SDS011;11925;48.122;11.560;2023-05-27T10:12:49;12.93;;;6.60;;
23496;SDS011;11925;48.122;11.560;2023-05-27T10:15:20;14.07;;;7.22;;
23496;SDS011;11925;48.122;11.560;2023-05-27T10:17:52;12.55;;;7.00;;
23496;SDS011;11925;48.122;11.560;2023-05-27T10:20:30;11.48;;;7.38;;
23496;SDS011;11925;48.122;11.560;2023-05-27T10:23:09;10.88;;;6.80;;
23496;SDS011;11925;48.122;11.560;2023-05-27T10:25:39;11.55;;;6.50;;
23496;SDS011;11925;48.122;11.560;2023-05-27T10:28:08;12.05;;;7.68;;
23496;SDS011;11925;48.122;11.560;2023-05-27T10:30:43;14.25;;;7.25;;
23496;SDS011;11925;48.122;11.560;2023-05-27T10:33:12;12.50;;;6.90;;
23496;SDS011;11925;48.122;11.560;2023-05-27T10:35:42;12.95;;;7.65;;
23496;SDS011;11925;48.122;11.560;2023-05-27T10:38:15;13.57;;;7.53;;
23496;SDS011;11925;48.122;11.560;2023-05-27T10:40:45;13.05;;;7.72;;
23496;SDS011;11925;48.122;11.560;2023-05-27T10:43:15;12.20;;;7.20;;
23496;SDS011;11925;48.122;11.560;2023-05-27T10:45:44;11.23;;;7.35;;
23496;SDS011;11925;48.122;11.560;2023-05-27T10:48:17;10.27;;;7.05;;
23496;SDS011;11925;48.122;11.560;2023-05-27T10:50:50;11.55;;;6.60;;
23496;SDS011;11925;48.122;11.560;2023-05-27T10:53:20;12.93;;;6.82;;
23496;SDS011;11925;48.122;11.560;2023-05-27T10:55:49;10.90;;;7.07;;
23496;SDS011;11925;48.122;11.560;2023-05-27T10:58:18;12.80;;;6.38;;
23496;SDS011;11925;48.122;11.560;2023-05-27T11:00:48;10.00;;;6.72;;
23496;SDS011;11925;48.122;11.560;2023-05-27T11:03:22;9.30;;;6.60;;
23496;SDS011;11925;48.122;11.560;2023-05-27T11:06:00;10.93;;;6.85;;
23496;SDS011;11925;48.122;11.560;2023-05-27T11:08:30;13.13;;;6.82;;
23496;SDS011;11925;48.122;11.560;2023-05-27T11:11:00;12.88;;;6.40;;
23496;SDS011;11925;48.122;11.560;2023-05-27T11:13:29;12.43;;;7.07;;
23496;SDS011;11925;48.122;11.560;2023-05-27T11:15:59;12.82;;;7.50;;
23496;SDS011;11925;48.122;11.560;2023-05-27T11:18:37;12.27;;;7.35;;
23496;SDS011;11925;48.122;11.560;2023-05-27T11:21:08;12.38;;;7.25;;
23496;SDS011;11925;48.122;11.560;2023-05-27T11:23:38;10.75;;;7.00;;
23496;SDS011;11925;48.122;11.560;2023-05-27T11:26:11;9.50;;;6.70;;
23496;SDS011;11925;48.122;11.560;2023-05-27T11:28:47;13.88;;;6.93;;
23496;SDS011;11925;48.122;11.560;2023-05-27T11:31:16;10.32;;;6.78;;
23496;SDS011;11925;48.122;11.560;2023-05-27T11:33:46;13.07;;;6.63;;
23496;SDS011;11925;48.122;11.560;2023-05-27T11:36:19;15.15;;;6.78;;
23496;SDS011;11925;48.122;11.560;2023-05-27T11:38:48;10.80;;;6.72;;
23496;SDS011;11925;48.122;11.560;2023-05-27T11:41:21;12.07;;;7.85;;
23496;SDS011;11925;48.122;11.560;2023-05-27T11:43:54;12.17;;;7.20;;
23496;SDS011;11925;48.122;11.560;2023-05-27T11:46:23;11.77;;;6.70;;
23496;SDS011;11925;48.122;11.560;2023-05-27T11:49:02;13.68;;;7.35;;
23496;SDS011;11925;48.122;11.560;2023-05-27T11:51:32;11.60;;;6.95;;
23496;SDS011;11925;48.122;11.560;2023-05-27T11:54:02;10.90;;;7.28;;
23496;SDS011;11925;48.122;11.560;2023-05-27T11:56:30;10.35;;;6.43;;
23496;SDS011;11925;48.122;11.560;2023-05-27T11:58:59;9.00;;;6.10;;
23496;SDS011;11925;48.122;11.560;2023-05-27T12:01:28;10.77;;;6.32;;
23496;SDS011;11925;48.122;11.560;2023-05-27T12:03:56;10.60;;;6.78;;
23496;SDS011;11925;48.122;11.560;2023-05-27T12:06:25;13.38;;;6.57;;
23496;SDS011;11925;48.122;11.560;2023-05-27T12:08:54;13.05;;;6.68;;
23496;SDS011;11925;48.122;11.560;2023-05-27T12:11:23;12.18;;;7.18;;
23496;SDS011;11925;48.122;11.560;2023-05-27T12:13:52;10.63;;;6.00;;
23496;SDS011;11925;48.122;11.560;2023-05-27T12:16:21;11.02;;;6.60;;
23496;SDS011;11925;48.122;11.560;2023-05-27T12:18:49;11.20;;;6.18;;
23496;SDS011;11925;48.122;11.560;2023-05-27T12:21:18;12.30;;;6.63;;
23496;SDS011;11925;48.122;11.560;2023-05-27T12:23:47;11.25;;;6.35;;
23496;SDS011;11925;48.122;11.560;2023-05-27T12:26:17;11.18;;;6.10;;
23496;SDS011;11925;48.122;11.560;2023-05-27T12:28:47;10.60;;;6.13;;
23496;SDS011;11925;48.122;11.560;2023-05-27T12:31:15;10.90;;;6.38;;
23496;SDS011;11925;48.122;11.560;2023-05-27T12:33:44;12.40;;;6.07;;
23496;SDS011;11925;48.122;11.560;2023-05-27T12:36:14;11.30;;;6.15;;
23496;SDS011;11925;48.122;11.560;2023-05-27T12:38:42;11.38;;;6.10;;
23496;SDS011;11925;48.122;11.560;2023-05-27T12:41:11;11.00;;;5.78;;
23496;SDS011;11925;48.122;11.560;2023-05-27T12:43:41;13.88;;;5.50;;
23496;SDS011;11925;48.122;11.560;2023-05-27T12:46:10;11.27;;;5.72;;
23496;SDS011;11925;48.122;11.560;2023-05-27T12:48:39;9.85;;;5.85;;
23496;SDS011;11925;48.122;11.560;2023-05-27T12:51:07;10.73;;;5.72;;
23496;SDS011;11925;48.122;11.560;2023-05-27T12:53:36;10.63;;;6.05;;
23496;SDS011;11925;48.122;11.560;2023-05-27T12:56:04;10.05;;;5.85;;
23496;SDS011;11925;48.122;11.560;2023-05-27T12:58:33;9.50;;;5.70;;
23496;SDS011;11925;48.122;11.560;2023-05-27T13:01:02;8.43;;;5.55;;
23496;SDS011;11925;48.122;11.560;2023-05-27T13:03:31;11.90;;;6.40;;
23496;SDS011;11925;48.122;11.560;2023-05-27T13:05:59;9.80;;;6.15;;
23496;SDS011;11925;48.122;11.560;2023-05-27T13:08:27;11.57;;;5.95;;
23496;SDS011;11925;48.122;11.560;2023-05-27T13:10:56;10.13;;;5.45;;
23496;SDS011;11925;48.122;11.560;2023-05-27T13:13:24;10.43;;;5.50;;
23496;SDS011;11925;48.122;11.560;2023-05-27T13:15:52;10.68;;;5.72;;
23496;SDS011;11925;48.122;11.560;2023-05-27T13:18:22;11.23;;;5.22;;
23496;SDS011;11925;48.122;11.560;2023-05-27T13:20:50;8.90;;;5.20;;
23496;SDS011;11925;48.122;11.560;2023-05-27T13:23:19;10.63;;;5.88;;
23496;SDS011;11925;48.122;11.560;2023-05-27T13:25:48;10.07;;;6.05;;
23496;SDS011;11925;48.122;11.560;2023-05-27T13:28:17;9.88;;;5.68;;
23496;SDS011;11925;48.122;11.560;2023-05-27T13:30:45;10.70;;;5.40;;
23496;SDS011;11925;48.122;11.560;2023-05-27T13:33:14;11.40;;;6.18;;
23496;SDS011;11925;48.122;11.560;2023-05-27T13:35:44;11.77;;;5.72;;
23496;SDS011;11925;48.122;11.560;2023-05-27T13:38:13;8.13;;;5.43;;
23496;SDS011;11925;48.122;11.560;2023-05-27T13:40:43;9.32;;;5.63;;
23496;SDS011;11925;48.122;11.560;2023-05-27T13:43:11;8.02;;;5.88;;
23496;SDS011;11925;48.122;11.560;2023-05-27T13:45:39;11.73;;;5.15;;
23496;SDS011;11925;48.122;11.560;2023-05-27T13:48:08;11.82;;;6.07;;
23496;SDS011;11925;48.122;11.560;2023-05-27T13:50:36;8.57;;;4.90;;
23496;SDS011;11925;48.122;11.560;2023-05-27T13:53:06;9.32;;;5.53;;
23496;SDS011;11925;48.122;11.560;2023-05-27T13:55:34;9.60;;;5.40;;
23496;SDS011;11925;48.122;11.560;2023-05-27T13:58:02;9.00;;;5.28;;
23496;SDS011;11925;48.122;11.560;2023-05-27T14:00:31;9.98;;;5.72;;
23496;SDS011;11925;48.122;11.560;2023-05-27T14:03:00;7.82;;;5.00;;
23496;SDS011;11925;48.122;11.560;2023-05-27T14:05:29;7.97;;;4.80;;
23496;SDS011;11925;48.122;11.560;2023-05-27T14:07:57;9.00;;;5.60;;
23496;SDS011;11925;48.122;11.560;2023-05-27T14:10:28;7.60;;;5.10;;
23496;SDS011;11925;48.122;11.560;2023-05-27T14:12:57;8.60;;;5.03;;
23496;SDS011;11925;48.122;11.560;2023-05-27T14:15:25;9.02;;;5.07;;
23496;SDS011;11925;48.122;11.560;2023-05-27T14:17:56;9.32;;;5.43;;
23496;SDS011;11925;48.122;11.560;2023-05-27T14:20:26;11.30;;;5.50;;
23496;SDS011;11925;48.122;11.560;2023-05-27T14:22:55;8.68;;;4.82;;
23496;SDS011;11925;48.122;11.560;2023-05-27T14:25:25;10.88;;;5.10;;
23496;SDS011;11925;48.122;11.560;2023-05-27T14:27:54;10.50;;;5.28;;
23496;SDS011;11925;48.122;11.560;2023-05-27T14:30:27;8.88;;;5.32;;
23496;SDS011;11925;48.122;11.560;2023-05-27T14:32:57;9.88;;;5.10;;
23496;SDS011;11925;48.122;11.560;2023-05-27T14:35:28;10.75;;;5.45;;
23496;SDS011;11925;48.122;11.560;2023-05-27T14:38:00;9.98;;;4.85;;
23496;SDS011;11925;48.122;11.560;2023-05-27T14:40:29;13.93;;;5.25;;
23496;SDS011;11925;48.122;11.560;2023-05-27T14:42:59;9.50;;;4.85;;
23496;SDS011;11925;48.122;11.560;2023-05-27T14:45:28;8.65;;;4.63;;
23496;SDS011;11925;48.122;11.560;2023-05-27T14:47:56;9.30;;;4.68;;
23496;SDS011;11925;48.122;11.560;2023-05-27T14:50:24;7.65;;;4.88;;